To NAV CANADA Home Page Login to a new session Search on AWWS site Disclaimer Vers la page française équivalente Tips FAQ What's new on the site To the Forecasts and Observations / NOTAM section To "File a Flight Plan" website Publications and other links Update of the User's profile FIC Telephone Numbers My Weather Data Folder Route Weather Data Regional Weather Data Local Weather Data To the Forecasts and Observations / NOTAM section
Request Generated 06/25/2021 at 13:10:18 UTC . Weather information available at that time is displayed.

METAR/TAF

IQALUIT/NU    

METAR CYFB 251300Z 15008KT 30SM OVC038 03/00 A2959 RMK SC8 SLP026=
METAR CYFB 251200Z CCA 15013KT 30SM BKN035 BKN250 04/01 A2958 RMK SC6CI1 SLP020=
METAR CYFB 251200Z 15013KT 30SM BKN035 OVC250 04/01 A2958 RMK SC6CI1 SLP020=
METAR CYFB 251100Z 13008KT 30SM SCT040 BKN220 04/01 A2956 RMK SC3CI3 SLP013=

TAF CYFB 251138Z 2512/2612 13008KT P6SM SCT040 TEMPO 2512/2514 BKN030
FM251400 16012KT P6SM BKN030 TEMPO 2514/2520 P6SM -SHRA OVC020
FM252000 16012KT P6SM SCT040 TEMPO 2520/2524 BKN030
FM260000 13013KT P6SM -RA BKN025 OVC060
FM260300 14015KT 2SM -RA BR BKN008 OVC020
RMK NXT FCST BY 251800Z=
Your time UTC time
Weather data provided by Environment Canada and NAV CANADA